M I D A S
Marine Information and Data Acquisition System
Tripno 1875 of the Zeeleeuw from 2010-05-05 06:13:49 to 2010-05-05 14:26:35
Back to CruiseResearch ActivitiesStationsMapUnderway DataData graphs

EquipmentUnitsComment
TimeDGPSUTC
LatitudeDGPSDM.mWGS84
LongitudeDGPSDM.mWGS84
TemperatureSBE03/SBE38deg celciusITS90
ConductivitySBE21S/mITS90
SalinitySBE21 Practical Salinity Units
ChlorophylAChelsea fluorimeterg/lCalibrated in Aceton
Missing or incorrect values are displayed as -999
Sea surface data collected by the RV Zeeleeuw from 2010-05-05 06:17:15 to 2010-05-05 15:24:49
Time Latitude Longitude Temperature Conductivity Salinity ChlorophylA
2010-05-05 06:18:24 51°13.678 2°55.872 14.2843 0.068076 0.419339 -1.000568
2010-05-05 06:19:24 51°13.718 2°55.761 14.2892 0.068076 0.419379 -1.000568
2010-05-05 06:20:24 51°13.784 2°55.669 14.3056 0.068076 0.419426 -1.035392
2010-05-05 06:21:24 51°13.865 2°55.619 14.3146 0.067972 0.418778 -1.035392
2010-05-05 06:22:24 51°13.923 2°55.631 14.3099 0.067972 0.418817 -1.035392
2010-05-05 06:23:24 51°13.935 2°55.641 14.3021 0.067972 0.418833 -1.000568
2010-05-05 06:24:23 51°13.93 2°55.638 14.2996 0.067972 0.418864 -1.035392
2010-05-05 06:25:24 51°13.931 2°55.608 14.3022 0.067972 0.418896 -1.035392
2010-05-05 06:26:24 51°13.933 2°55.591 14.3115 0.067972 0.418928 -1.035392
2010-05-05 06:27:24 51°13.929 2°55.592 14.3378 0.067972 0.418944 -1.000568
2010-05-05 06:28:23 51°13.961 2°55.57 14.3242 0.067972 0.418983 -1.035392
2010-05-05 06:29:22 51°13.978 2°55.566 14.3406 0.067972 0.419023 -1.035392
2010-05-05 06:30:24 51°13.972 2°55.569 14.3371 0.067972 0.419046 -1.035392
2010-05-05 06:31:24 51°13.956 2°55.581 14.3405 0.067972 0.41907 -1.035392
2010-05-05 06:32:24 51°13.931 2°55.604 14.3476 0.067972 0.419102 -1.035392
2010-05-05 06:33:24 51°13.915 2°55.614 14.3492 0.067972 0.419118 -1.000568
2010-05-05 06:34:24 51°13.903 2°55.621 14.3587 0.067972 0.419149 -1.035392
2010-05-05 06:35:24 51°13.897 2°55.629 14.3473 0.067972 0.419165 -1.000568
2010-05-05 06:36:24 51°13.922 2°55.594 14.378 0.067972 0.419213 -1.000568
2010-05-05 06:37:24 51°13.979 2°55.544 14.3764 0.067972 0.419244 -0.965744
2010-05-05 06:38:23 51°14.037 2°55.498 14.3893 0.067972 0.419268 -1.000568
2010-05-05 06:39:21 51°14.093 2°55.452 14.4052 0.067972 0.419292 -1.035392
2010-05-05 06:40:20 51°14.154 2°55.406 14.3923 0.067972 0.419316 -1.000568
2010-05-05 06:41:21 51°14.227 2°55.332 14.3872 0.067972 0.419331 -1.035392
2010-05-05 06:42:21 51°14.33 2°55.218 14.3439 0.067868 0.41869 -1.000568
2010-05-05 06:43:20 51°14.478 2°55.062 14.3117 0.067972 0.419387 -1.035392
2010-05-05 06:44:21 51°14.664 2°54.871 14.3256 0.067868 0.418745 -1.035392
2010-05-05 06:45:20 51°14.852 2°54.677 14.3432 0.067868 0.418785 -0.965744
2010-05-05 06:46:21 51°15.042 2°54.473 14.3285 0.067868 0.418801 -1.000568
2010-05-05 06:47:20 51°15.221 2°54.264 14.3567 0.067868 0.418832 -1.000568
2010-05-05 06:48:20 51°15.402 2°54.049 14.36 0.067868 0.418872 -1.035392
2010-05-05 06:49:20 51°15.585 2°53.835 14.3698 0.067868 0.418904 -1.000568
2010-05-05 06:50:21 51°15.762 2°53.603 14.3784 0.067868 0.418919 -1.000568
2010-05-05 06:51:20 51°15.946 2°53.405 14.3929 0.067868 0.418959 -1.035392
2010-05-05 06:52:21 51°16.146 2°53.23 14.3904 0.067868 0.418991 -1.000568
2010-05-05 06:55:17 51°16.767 2°52.851 14.4245 3.321327 28.796807 1.506764
2010-05-05 06:57:34 51°17.283 2°52.658 10.4196 3.406927 30.402062 1.611236
2010-05-05 06:58:34 51°17.507 2°52.569 10.4014 3.409246 30.43376 1.64606
2010-05-05 06:59:34 51°17.735 2°52.535 10.4751 3.412092 30.451832 1.750532
2010-05-05 07:00:34 51°17.967 2°52.584 10.4864 3.401656 30.294323 1.541588
2010-05-05 07:01:34 51°18.187 2°52.713 10.4779 3.408297 30.359239 1.541588
2010-05-05 07:02:34 51°18.4 2°52.869 10.4708 3.410194 30.382004 1.576412
2010-05-05 07:03:34 51°18.628 2°52.94 10.4809 3.413989 30.426213 1.576412
2010-05-05 07:04:34 51°18.86 2°52.974 10.4874 3.413251 30.412878 1.680884
2010-05-05 07:05:34 51°19.093 2°53.007 10.4749 3.413357 30.408551 1.785356
2010-05-05 07:06:34 51°19.326 2°53.041 10.4536 3.407243 30.361557 1.82018
2010-05-05 07:07:34 51°19.559 2°53.078 10.4036 3.416625 30.470422 1.82018
2010-05-05 07:08:34 51°19.79 2°53.114 10.3806 3.418207 30.530579 1.715708
2010-05-05 07:09:34 51°20.021 2°53.146 10.3485 3.430013 30.663167 1.541588
2010-05-05 07:10:34 51°20.25 2°53.177 10.2975 3.434652 30.743203 1.332643
2010-05-05 07:11:34 51°20.483 2°53.178 10.2668 3.441505 30.852292 1.193347
2010-05-05 07:12:34 51°20.712 2°53.172 10.2658 3.449306 30.94982 1.402292
2010-05-05 07:13:34 51°20.939 2°53.166 10.2055 3.45152 30.985631 1.367467
2010-05-05 07:14:34 51°21.167 2°53.16 10.272 3.450255 31.00681 1.506764
2010-05-05 07:15:34 51°21.396 2°53.156 10.3323 3.444351 30.885402 1.402292
2010-05-05 07:16:34 51°21.624 2°53.155 10.3678 3.45932 30.99514 1.506764
2010-05-05 07:17:34 51°21.854 2°53.156 10.3865 3.456579 30.936334 1.367467
2010-05-05 07:18:34 51°22.083 2°53.158 10.3892 3.452362 30.882149 1.402292
2010-05-05 07:19:34 51°22.311 2°53.16 10.381 3.4531 30.888105 1.262995
2010-05-05 07:20:34 51°22.542 2°53.162 10.4067 3.452994 30.893899 1.228171
2010-05-05 07:21:34 51°22.773 2°53.158 10.4433 3.456578 30.899376 2.481837
2010-05-05 07:22:34 51°23.005 2°53.154 10.4337 3.459952 30.913692 3.004198
2010-05-05 07:23:34 51°23.235 2°53.156 10.4218 3.465961 30.979436 3.28279
2010-05-05 07:24:34 51°23.468 2°53.153 10.4042 3.467648 31.008509 3.700679
2010-05-05 07:25:34 51°23.701 2°53.151 10.3789 3.466699 31.013502 3.387263
2010-05-05 07:26:34 51°23.934 2°53.151 10.3336 3.472708 31.089681 3.039022
2010-05-05 07:27:34 51°24.168 2°53.144 10.2855 3.473763 31.145687 4.014096
2010-05-05 07:28:34 51°24.401 2°53.14 10.2502 3.478402 31.227183 3.805151
2010-05-05 07:29:34 51°24.633 2°53.133 10.2264 3.4803 31.275967 4.014096
2010-05-05 07:30:34 51°24.864 2°53.123 10.1961 3.482304 31.318932 4.815049
2010-05-05 07:31:34 51°25.094 2°53.113 10.1818 3.481777 31.333894 5.093641
2010-05-05 07:32:34 51°25.324 2°53.1 10.1734 3.481144 31.342235 4.710577
2010-05-05 07:33:34 51°25.553 2°53.088 10.1734 3.483991 31.374179 4.362336
2010-05-05 07:34:34 51°25.785 2°53.078 10.1654 3.485256 31.388225 4.431984
2010-05-05 07:35:34 51°26.016 2°53.068 10.1487 3.483675 31.381509 4.501632
2010-05-05 07:36:34 51°26.246 2°53.082 10.1226 3.489473 31.454926 4.815049
2010-05-05 07:37:34 51°26.475 2°53.139 10.0989 3.487681 31.462963 4.292688
2010-05-05 07:38:34 51°26.703 2°53.192 10.0751 3.487576 31.478074 4.118568
2010-05-05 07:39:34 51°26.933 2°53.244 10.0374 3.488947 31.517862 3.422087
2010-05-05 07:40:34 51°27.163 2°53.295 10.0235 3.489158 31.544668 3.039022
2010-05-05 07:41:34 51°27.396 2°53.349 10.0275 3.482833 31.488237 2.969374
2010-05-05 07:42:34 51°27.63 2°53.404 10.0359 3.490634 31.561601 2.969374
2010-05-05 07:43:34 51°27.865 2°53.459 10.0192 3.486417 31.514337 2.690782
2010-05-05 07:44:34 51°28.1 2°53.514 9.9972 3.482833 31.496699 2.586309
2010-05-05 07:45:34 51°28.334 2°53.572 9.9767 3.488632 31.572593 2.586309
2010-05-05 07:46:34 51°28.565 2°53.621 9.9321 3.496117 31.669814 2.76043
2010-05-05 07:47:34 51°28.794 2°53.659 9.9082 3.511932 31.861083 3.526559
2010-05-05 07:48:34 51°29.023 2°53.699 9.9045 3.513092 31.89282 3.073846
2010-05-05 07:49:34 51°29.252 2°53.736 9.9002 3.512776 31.892498 2.621133
2010-05-05 07:50:34 51°29.483 2°53.759 9.8733 3.505923 31.83486 2.481837
2010-05-05 07:51:34 51°29.715 2°53.773 9.801 3.50877 31.900861 1.959476
2010-05-05 07:52:34 51°29.948 2°53.785 9.7812 3.517416 32.035045 1.82018
2010-05-05 07:53:34 51°30.18 2°53.798 9.7749 3.513726 32.009993 1.785356
2010-05-05 07:54:34 51°30.411 2°53.813 9.7576 3.512672 32.008713 1.611236
2010-05-05 07:55:34 51°30.642 2°53.828 9.7457 3.519208 32.08791 1.297819
2010-05-05 07:56:34 51°30.877 2°53.843 9.7281 3.521528 32.124457 1.228171
2010-05-05 07:57:34 51°31.113 2°53.859 9.7217 3.523321 32.152786 1.228171
2010-05-05 07:58:47 51°31.398 2°53.878 9.6811 3.525429 32.181433 1.158523
2010-05-05 07:59:47 51°31.633 2°53.892 9.6357 3.532705 32.294631 1.82018
2010-05-05 08:00:47 51°31.869 2°53.906 9.6356 3.53745 32.38387 2.307717
2010-05-05 08:01:47 51°32.103 2°53.921 9.6144 3.533549 32.339798 1.924652
2010-05-05 08:02:47 51°32.339 2°53.936 9.6039 3.538188 32.408273 2.029124
2010-05-05 08:03:47 51°32.573 2°53.957 9.5713 3.540718 32.448744 2.203245
2010-05-05 08:04:47 51°32.778 2°54.12 9.5452 3.545147 32.515976 2.690782
2010-05-05 08:05:47 51°32.952 2°54.368 9.5534 3.551579 32.607452 3.073846
2010-05-05 08:06:47 51°33.129 2°54.612 9.5719 3.544725 32.523495 2.307717
2010-05-05 08:07:47 51°33.296 2°54.868 9.5554 3.546939 32.532027 1.82018
2010-05-05 08:08:47 51°33.433 2°55.167 9.5554 3.545885 32.530146 1.82018
2010-05-05 08:09:47 51°33.436 2°55.521 9.5684 3.542828 32.504886 1.959476
2010-05-05 08:10:47 51°33.352 2°55.775 9.6297 3.536396 32.419445 1.750532
2010-05-05 08:11:47 51°33.285 2°55.964 9.7133 3.526484 32.258482 1.193347
2010-05-05 08:12:47 51°33.258 2°56.098 9.7308 3.51826 32.114556 0.566514
2010-05-05 08:13:47 51°33.281 2°56.182 9.7224 3.523531 32.16001 0.636162
2010-05-05 08:14:47 51°33.335 2°56.208 9.7394 3.52448 32.168904 0.670986
2010-05-05 08:15:47 51°33.368 2°56.154 9.7389 3.524058 32.151549 0.70581
2010-05-05 08:16:47 51°33.376 2°56.102 9.7128 3.52564 32.174845 1.054051
2010-05-05 08:17:47 51°33.384 2°56.065 9.727 3.526694 32.197173 1.088875
2010-05-05 08:18:47 51°33.393 2°56.041 9.7257 3.527327 32.197766 0.949579
2010-05-05 08:19:47 51°33.402 2°56.025 9.727 3.528065 32.20525 1.019227
2010-05-05 08:20:47 51°33.409 2°56.016 9.7336 3.52796 32.200542 1.019227
2010-05-05 08:21:47 51°33.413 2°56.01 9.7292 3.527749 32.193312 1.019227
2010-05-05 08:22:47 51°33.417 2°56.005 9.7277 3.529119 32.213029 1.262995
2010-05-05 08:23:47 51°33.42 2°56.002 9.7143 3.529647 32.222743 1.332643
2010-05-05 08:24:47 51°33.42 2°56 9.7035 3.531755 32.255793 1.785356
2010-05-05 08:25:47 51°33.421 2°56 9.7014 3.531123 32.253751 2.133597
2010-05-05 08:26:47 51°33.42 2°56.001 9.6913 3.532072 32.270677 2.377365
2010-05-05 08:27:47 51°33.42 2°56.005 9.6938 3.532494 32.279339 2.516661
2010-05-05 08:28:47 51°33.419 2°56.009 9.6963 3.532494 32.277148 2.412189
2010-05-05 08:29:47 51°33.419 2°56.011 9.7016 3.532283 32.272088 2.447013
2010-05-05 08:30:47 51°33.418 2°56.012 9.7061 3.531755 32.263088 2.412189
2010-05-05 08:31:47 51°33.417 2°56.012 9.7082 3.532177 32.261531 2.272893
2010-05-05 08:32:47 51°33.416 2°56.01 9.7042 3.532072 32.260461 2.342541
2010-05-05 08:33:47 51°33.416 2°56.008 9.7094 3.532388 32.26586 2.272893
2010-05-05 08:34:47 51°33.414 2°56.005 9.7146 3.532388 32.262212 2.307717
2010-05-05 08:35:47 51°33.412 2°56.003 9.7218 3.532388 32.254919 2.272893
2010-05-05 08:36:47 51°33.41 2°56.001 9.7269 3.532177 32.246948 2.342541
2010-05-05 08:37:47 51°33.408 2°55.999 9.7322 3.532599 32.246853 2.272893
2010-05-05 08:38:47 51°33.406 2°55.997 9.7309 3.532282 32.240003 2.238069
2010-05-05 08:39:47 51°33.404 2°55.995 9.7305 3.532388 32.2418 2.307717
2010-05-05 08:40:47 51°33.402 2°55.993 9.7334 3.533126 32.249284 2.307717
2010-05-05 08:41:47 51°33.399 2°55.991 9.7321 3.533337 32.251422 2.342541
2010-05-05 08:42:47 51°33.396 2°55.99 9.7316 3.533337 32.251422 2.307717
2010-05-05 08:43:47 51°33.393 2°55.988 9.7304 3.534285 32.263231 2.238069
2010-05-05 08:44:47 51°33.39 2°55.985 9.7293 3.535023 32.268528 2.133597
2010-05-05 08:45:47 51°33.384 2°55.945 9.7368 3.534918 32.270376 2.133597
2010-05-05 08:46:47 51°33.347 2°55.918 9.7413 3.534707 32.258032 1.855004
2010-05-05 08:47:47 51°33.315 2°55.961 9.7725 3.535234 32.259005 1.262995
2010-05-05 08:48:47 51°33.301 2°56 9.7675 3.536394 32.248184 1.019227
2010-05-05 08:49:47 51°33.292 2°56.029 9.7609 3.539135 32.283971 1.158523
2010-05-05 08:50:47 51°33.287 2°56.051 9.7953 3.538713 32.279697 1.088875
2010-05-05 08:51:47 51°33.284 2°56.068 9.8177 3.536921 32.233884 0.775459
2010-05-05 08:52:47 51°33.282 2°56.08 9.8286 3.534812 32.192208 0.740634
2010-05-05 08:53:47 51°33.281 2°56.088 9.836 3.53323 32.168959 0.670986
2010-05-05 08:54:47 51°33.279 2°56.093 9.8458 3.532597 32.156765 0.670986
2010-05-05 08:55:47 51°33.278 2°56.095 9.8625 3.531859 32.138444 0.496866
2010-05-05 08:56:46 51°33.276 2°56.096 9.8687 3.532492 32.131815 0.462042
2010-05-05 08:57:46 51°33.274 2°56.095 9.8761 3.532913 32.129568 0.53169
2010-05-05 08:58:46 51°33.271 2°56.093 9.8842 3.532808 32.120553 0.496866
2010-05-05 09:00:00 51°33.266 2°56.09 9.8879 3.533651 32.120401 0.496866
2010-05-05 09:01:06 51°33.262 2°56.085 9.8832 3.533862 32.123253 0.462042
2010-05-05 09:02:09 51°33.258 2°56.082 9.889 3.533757 32.120744 0.53169
2010-05-05 09:03:09 51°33.254 2°56.078 9.895 3.534073 32.119604 0.496866
2010-05-05 09:04:09 51°33.25 2°56.075 9.8941 3.5346 32.123481 0.53169
2010-05-05 09:05:09 51°33.245 2°56.072 9.8959 3.534389 32.119908 0.53169
2010-05-05 09:06:09 51°33.241 2°56.069 9.9015 3.534284 32.118122 0.53169
2010-05-05 09:07:09 51°33.235 2°56.066 9.9062 3.534389 32.11341 0.53169
2010-05-05 09:08:09 51°33.23 2°56.063 9.9126 3.534178 32.105509 0.566514
2010-05-05 09:09:09 51°33.225 2°56.06 9.9156 3.5346 32.105436 0.53169
2010-05-05 09:10:09 51°33.219 2°56.056 9.9184 3.534494 32.101487 0.566514
2010-05-05 09:11:09 51°33.213 2°56.053 9.9188 3.534178 32.095411 0.53169
2010-05-05 09:12:09 51°33.206 2°56.049 9.9227 3.534072 32.092906 0.566514
2010-05-05 09:13:09 51°33.2 2°56.045 9.924 3.534178 32.091086 0.566514
2010-05-05 09:14:09 51°33.193 2°56.042 9.926 3.534494 32.092835 0.496866
2010-05-05 09:15:09 51°33.187 2°56.039 9.9359 3.533756 32.083949 0.566514
2010-05-05 09:16:09 51°33.181 2°56.037 9.9361 3.534599 32.08525 0.496866
2010-05-05 09:17:09 51°33.175 2°56.034 9.9422 3.53481 32.086656 0.427218
2010-05-05 09:18:09 51°33.169 2°56.031 9.9509 3.535126 32.081922 0.392394
2010-05-05 09:19:09 51°33.162 2°56.028 9.9534 3.53597 32.083944 0.35757
2010-05-05 09:20:09 51°33.155 2°56.025 9.9504 3.536181 32.085349 0.35757
2010-05-05 09:21:09 51°33.147 2°56.021 9.9512 3.53597 32.084664 0.35757
2010-05-05 09:22:09 51°33.138 2°56.02 9.9518 3.536075 32.085727 0.35757
2010-05-05 09:23:09 51°33.131 2°56.054 9.9416 3.536181 32.086789 0.392394
2010-05-05 09:24:09 51°33.14 2°56.109 9.9281 3.535337 32.08909 0.601338
2010-05-05 09:25:09 51°33.17 2°56.157 9.9261 3.535443 32.100243 0.810283
2010-05-05 09:26:09 51°33.213 2°56.172 9.9281 3.535127 32.096332 0.845107
2010-05-05 09:27:09 51°33.244 2°56.137 9.931 3.534705 32.088475 0.845107
2010-05-05 09:28:09 51°33.257 2°56.097 9.907 3.534916 32.093484 1.054051
2010-05-05 09:29:09 51°33.263 2°56.064 9.9166 3.534389 32.101866 0.984403
2010-05-05 09:30:09 51°33.266 2°56.038 9.9097 3.534916 32.099251 1.054051
2010-05-05 09:31:09 51°33.267 2°56.016 9.9088 3.535759 32.112088 1.088875
2010-05-05 09:32:09 51°33.266 2°55.996 9.9121 3.535654 32.112467 1.088875
2010-05-05 09:33:09 51°33.263 2°55.976 9.9139 3.535865 32.113151 1.158523
2010-05-05 09:34:09 51°33.258 2°55.956 9.9097 3.535759 32.109923 1.193347
2010-05-05 09:35:09 51°33.253 2°55.936 9.9011 3.536076 32.117443 1.332643
2010-05-05 09:36:09 51°33.28 2°55.896 9.8797 3.536181 32.126447 1.437116
2010-05-05 09:37:09 51°33.32 2°55.924 9.822 3.537447 32.165964 1.228171
2010-05-05 09:38:09 51°33.324 2°55.967 9.831 3.53692 32.198305 1.054051
2010-05-05 09:39:09 51°33.317 2°55.995 9.8601 3.535339 32.177238 1.019227
2010-05-05 09:40:09 51°33.31 2°56.011 9.8513 3.534917 32.151977 0.914755
2010-05-05 09:41:09 51°33.304 2°56.019 9.8609 3.5346 32.158913 1.193347
2010-05-05 09:42:09 51°33.297 2°56.02 9.8744 3.535233 32.155897 1.123699
2010-05-05 09:43:09 51°33.289 2°56.025 9.8997 3.535549 32.144625 1.158523
2010-05-05 09:44:09 51°33.272 2°56.052 9.9148 3.535865 32.127587 1.019227
2010-05-05 09:45:09 51°33.245 2°56.065 9.8937 3.536287 32.119571 1.088875
2010-05-05 09:46:09 51°33.228 2°56.06 9.9023 3.536498 32.141197 1.088875
2010-05-05 09:47:09 51°33.224 2°56.046 9.8651 3.536076 32.131882 1.019227
2010-05-05 09:48:12 51°33.222 2°56.03 9.77 3.537342 32.180826 1.889828
2010-05-05 09:49:10 51°33.206 2°55.986 9.7587 3.537975 32.265663 2.830078
2010-05-05 09:50:09 51°33.199 2°55.94 9.8604 3.535339 32.226594 2.238069
2010-05-05 09:51:09 51°33.194 2°55.902 9.8952 3.535127 32.15049 1.332643
2010-05-05 09:52:09 51°33.188 2°55.87 9.898 3.534705 32.121657 1.123699
2010-05-05 09:53:09 51°33.182 2°55.841 9.8988 3.535654 32.126903 1.158523
2010-05-05 09:54:09 51°33.177 2°55.817 9.9109 3.537446 32.142106 1.158523
2010-05-05 09:55:09 51°33.171 2°55.794 9.9301 3.536181 32.118507 1.088875
2010-05-05 09:56:08 51°33.165 2°55.773 9.9366 3.538606 32.127097 1.088875
2010-05-05 09:57:09 51°33.165 2°55.741 9.9406 3.539133 32.125921 1.123699
2010-05-05 09:58:08 51°33.212 2°55.727 9.9248 3.540082 32.12972 1.019227
2010-05-05 09:59:09 51°33.306 2°55.816 9.8367 3.540082 32.153537 0.879931
2010-05-05 10:00:09 51°33.431 2°55.919 9.8716 3.539872 32.222357 1.123699
2010-05-05 10:01:09 51°33.45 2°56.045 9.8716 3.538501 32.172996 0.70581
2010-05-05 10:02:09 51°33.431 2°56.12 9.8794 3.536709 32.157786 0.670986
2010-05-05 10:03:08 51°33.412 2°56.167 9.9059 3.535865 32.139145 0.670986
2010-05-05 10:04:09 51°33.396 2°56.2 9.9299 3.53597 32.119266 0.601338
2010-05-05 10:05:08 51°33.384 2°56.22 9.9427 3.535127 32.091287 0.740634
2010-05-05 10:06:40 51°33.367 2°56.236 9.9528 3.535654 32.077876 0.879931
2010-05-05 10:07:40 51°33.356 2°56.239 9.9556 3.535864 32.078562 0.984403
2010-05-05 10:08:40 51°33.344 2°56.237 9.9536 3.536075 32.079967 0.984403
2010-05-05 10:09:40 51°33.333 2°56.233 9.9551 3.535864 32.075683 1.019227
2010-05-05 10:10:40 51°33.322 2°56.228 9.9596 3.535864 32.074963 0.879931
2010-05-05 10:11:40 51°33.31 2°56.222 9.9677 3.535653 32.069241 0.775459
2010-05-05 10:12:39 51°33.298 2°56.215 9.9764 3.53734 32.078323 0.70581
2010-05-05 10:13:40 51°33.286 2°56.207 9.9855 3.536286 32.06195 0.740634
2010-05-05 10:14:40 51°33.272 2°56.196 9.9888 3.538605 32.076682 0.810283
2010-05-05 10:15:40 51°33.258 2°56.185 9.9938 3.536707 32.04967 0.740634
2010-05-05 10:16:40 51°33.244 2°56.174 9.9952 3.536496 32.048266 0.740634
2010-05-05 10:17:40 51°33.23 2°56.162 10.0015 3.539659 32.077952 0.70581
2010-05-05 10:18:40 51°33.216 2°56.149 10.0023 3.539659 32.075077 0.70581
2010-05-05 10:19:39 51°33.201 2°56.142 10.0074 3.539027 32.065836 0.670986
2010-05-05 10:20:40 51°33.197 2°56.181 9.9936 3.538605 32.059436 0.566514
2010-05-05 10:21:40 51°33.245 2°56.244 9.9765 3.537129 32.058944 0.53169
2010-05-05 10:22:40 51°33.311 2°56.328 9.9668 3.535232 32.051332 0.462042
2010-05-05 10:23:40 51°33.358 2°56.373 9.956 3.534915 32.05749 0.427218
2010-05-05 10:24:40 51°33.388 2°56.382 9.9561 3.536181 32.073833 0.392394
2010-05-05 10:25:40 51°33.407 2°56.378 9.9522 3.53713 32.086993 0.462042
2010-05-05 10:26:39 51°33.415 2°56.366 9.9482 3.537024 32.08809 0.636162
2010-05-05 10:27:40 51°33.415 2°56.351 9.9482 3.538817 32.110477 0.775459
2010-05-05 10:28:39 51°33.41 2°56.332 9.9492 3.537551 32.098445 0.810283
2010-05-05 10:29:40 51°33.397 2°56.31 9.9184 3.539449 32.116133 0.879931
2010-05-05 10:30:39 51°33.381 2°56.29 9.8603 3.537868 32.12831 1.332643
2010-05-05 10:31:40 51°33.365 2°56.271 9.7887 3.539872 32.212926 2.133597
2010-05-05 10:32:40 51°33.349 2°56.254 9.7947 3.537869 32.243492 2.272893
2010-05-05 10:33:40 51°33.334 2°56.234 9.8387 3.537764 32.222078 1.889828
2010-05-05 10:34:40 51°33.32 2°56.215 9.8532 3.537763 32.19016 1.715708
2010-05-05 10:35:39 51°33.305 2°56.195 9.8688 3.53808 32.181766 1.715708
2010-05-05 10:36:40 51°33.289 2°56.174 9.8769 3.538396 32.171932 1.64606
2010-05-05 10:37:39 51°33.273 2°56.154 9.8858 3.538606 32.168997 1.64606
2010-05-05 10:38:40 51°33.258 2°56.13 9.9103 3.538712 32.156322 1.541588
2010-05-05 10:39:40 51°33.244 2°56.107 9.925 3.539239 32.146471 1.47194
2010-05-05 10:40:40 51°33.231 2°56.083 9.9435 3.539133 32.127364 1.297819
2010-05-05 10:41:40 51°33.216 2°56.059 9.9482 3.539027 32.112603 1.123699
2010-05-05 10:42:39 51°33.202 2°56.036 9.9542 3.538922 32.107217 1.123699
2010-05-05 10:43:40 51°33.187 2°56.013 9.9577 3.539344 32.104985 1.123699
2010-05-05 10:44:39 51°33.172 2°55.991 9.9666 3.539238 32.100322 1.123699
2010-05-05 10:45:40 51°33.156 2°55.966 9.9715 3.539238 32.093844 1.193347
2010-05-05 10:46:39 51°33.147 2°55.93 9.9733 3.539343 32.094906 1.262995
2010-05-05 10:47:40 51°33.169 2°55.888 9.9821 3.539238 32.088807 1.054051
2010-05-05 10:48:39 51°33.192 2°55.918 9.9863 3.540292 32.090793 0.670986
2010-05-05 10:49:39 51°33.181 2°55.953 9.9835 3.542506 32.114529 0.496866
2010-05-05 10:50:39 51°33.165 2°55.971 9.9776 3.543033 32.122718 0.53169
2010-05-05 10:51:39 51°33.147 2°55.979 9.946 3.542401 32.126429 0.70581
2010-05-05 10:52:40 51°33.131 2°55.977 9.9175 3.541663 32.144223 0.810283
2010-05-05 10:53:39 51°33.12 2°55.989 9.8967 3.541558 32.164819 0.914755
2010-05-05 10:54:40 51°33.137 2°56.014 9.9155 3.539766 32.164797 0.879931
2010-05-05 10:55:39 51°33.193 2°56.012 9.9476 3.538922 32.130287 0.670986
2010-05-05 10:56:40 51°33.293 2°56.021 9.9451 3.540293 32.120311 0.566514
2010-05-05 10:57:39 51°33.393 2°56.076 9.9066 3.541558 32.143882 0.601338
2010-05-05 10:58:39 51°33.47 2°56.195 9.877 3.54451 32.20763 0.601338
2010-05-05 10:59:39 51°33.506 2°56.344 9.8294 3.544827 32.234004 0.670986
2010-05-05 11:00:39 51°33.49 2°56.439 9.8335 3.545038 32.275335 0.810283
2010-05-05 11:01:40 51°33.455 2°56.494 9.8481 3.545671 32.275192 0.810283
2010-05-05 11:02:39 51°33.421 2°56.526 9.8584 3.544933 32.256108 0.636162
2010-05-05 11:03:40 51°33.39 2°56.544 9.8616 3.545671 32.256309 0.601338
2010-05-05 11:04:39 51°33.363 2°56.552 9.869 3.543773 32.233501 0.70581
2010-05-05 11:05:40 51°33.336 2°56.554 9.8853 3.545776 32.245766 0.914755
2010-05-05 11:06:41 51°33.312 2°56.552 9.8915 3.545038 32.228161 0.914755
2010-05-05 11:10:37 51°33.225 2°56.516 9.896 3.547252 32.233132 0.810283
2010-05-05 11:11:37 51°33.203 2°56.502 9.9108 3.547673 32.231596 0.740634
2010-05-05 11:12:37 51°33.182 2°56.487 9.9273 3.548833 32.234613 0.70581
2010-05-05 11:13:37 51°33.161 2°56.471 9.928 3.547779 32.220355 0.70581
2010-05-05 11:14:37 51°33.14 2°56.456 9.933 3.547357 32.212483 0.70581
2010-05-05 11:15:37 51°33.117 2°56.439 9.9421 3.547884 32.209846 0.636162
2010-05-05 11:16:36 51°33.096 2°56.423 9.9464 3.550098 32.228563 0.636162
2010-05-05 11:17:37 51°33.072 2°56.406 9.9556 3.550203 32.222394 0.670986
2010-05-05 11:18:37 51°33.05 2°56.388 9.9547 3.550203 32.216611 0.566514
2010-05-05 11:19:37 51°33.027 2°56.37 9.9617 3.549887 32.211977 0.601338
2010-05-05 11:20:37 51°33.003 2°56.351 9.9624 3.549781 32.205856 0.496866
2010-05-05 11:21:37 51°32.981 2°56.334 9.9625 3.549465 32.20339 0.462042
2010-05-05 11:22:37 51°32.957 2°56.316 9.9763 3.549254 32.199098 0.427218
2010-05-05 11:23:37 51°32.933 2°56.298 9.9814 3.549676 32.192519 0.35757
2010-05-05 11:24:37 51°32.909 2°56.281 9.9946 3.549887 32.189592 0.322746
2010-05-05 11:25:36 51°32.884 2°56.283 10.0062 3.550308 32.182299 0.322746
2010-05-05 11:26:37 51°32.915 2°56.367 9.9941 3.550835 32.183282 0.253098
2010-05-05 11:27:37 51°33.036 2°56.442 10.002 3.549043 32.168116 0.18345
2010-05-05 11:28:37 51°33.183 2°56.433 9.9585 3.550835 32.184003 0.113802
2010-05-05 11:29:36 51°33.268 2°56.347 9.9187 3.551996 32.234684 0.18345
2010-05-05 11:30:36 51°33.283 2°56.242 9.8764 3.552629 32.275821 0.148626
2010-05-05 11:31:37 51°33.234 2°56.146 9.8474 3.551786 32.302863 0.322746
2010-05-05 11:32:36 51°33.164 2°56.16 9.8642 3.551575 32.321814 0.35757
2010-05-05 11:33:37 51°33.118 2°56.202 9.8669 3.552946 32.326944 0.287922
2010-05-05 11:34:36 51°33.081 2°56.243 9.8894 3.55031 32.300297 0.287922
2010-05-05 11:35:36 51°33.056 2°56.289 9.8938 3.549782 32.279717 0.253098
2010-05-05 11:36:37 51°33.08 2°56.319 9.9044 3.551258 32.286644 0.322746
2010-05-05 11:37:36 51°33.102 2°56.276 9.9003 3.551575 32.275328 0.322746
2010-05-05 11:38:37 51°33.107 2°56.222 9.8988 3.551575 32.278955 0.392394
2010-05-05 11:39:36 51°33.101 2°56.172 9.8908 3.551891 32.279973 0.427218
2010-05-05 11:40:37 51°33.089 2°56.126 9.8626 3.552418 32.29473 0.566514
2010-05-05 11:41:36 51°33.075 2°56.089 9.8226 3.551997 32.320986 0.70581
2010-05-05 11:42:37 51°33.057 2°56.052 9.7883 3.550627 32.338421 0.845107
2010-05-05 11:43:37 51°33.037 2°56.017 9.7744 3.548413 32.341516 1.054051
2010-05-05 11:44:36 51°33.025 2°55.974 9.7815 3.54894 32.356339 1.228171
2010-05-05 11:45:37 51°33.077 2°55.958 9.8189 3.548729 32.344719 1.054051
2010-05-05 11:46:36 51°33.132 2°56.054 9.8573 3.550943 32.33361 0.427218
2010-05-05 11:47:37 51°33.191 2°56.074 9.8719 3.554 32.336876 0.287922
2010-05-05 11:48:36 51°33.213 2°56.021 9.8665 3.555054 32.335168 0.253098
2010-05-05 11:49:37 51°33.214 2°55.963 9.8628 3.553684 32.32495 0.253098
2010-05-05 11:50:37 51°33.21 2°55.909 9.8598 3.554949 32.343559 0.322746
2010-05-05 11:51:37 51°33.218 2°55.871 9.8481 3.553262 32.333051 0.392394
2010-05-05 11:52:37 51°33.222 2°55.87 9.8274 3.552946 32.340041 0.392394
2010-05-05 11:53:36 51°33.209 2°55.889 9.8091 3.550521 32.331528 0.427218
2010-05-05 11:54:37 51°33.183 2°55.898 9.8247 3.551997 32.363229 0.70581
2010-05-05 11:55:36 51°33.159 2°55.899 9.8367 3.55263 32.352865 0.566514
2010-05-05 11:56:37 51°33.142 2°55.918 9.8454 3.552946 32.34878 0.566514
2010-05-05 11:57:36 51°33.148 2°55.941 9.8488 3.554211 32.350654 0.427218
2010-05-05 11:58:37 51°33.184 2°55.946 9.8616 3.554211 32.351382 0.35757
2010-05-05 11:59:37 51°33.238 2°55.935 9.8792 3.555582 32.349226 0.253098
2010-05-05 12:00:37 51°33.293 2°55.951 9.8532 3.556741 32.348581 0.218274
2010-05-05 12:01:37 51°33.352 2°55.972 9.8526 3.555687 32.363398 0.287922
2010-05-05 12:02:37 51°33.41 2°55.96 9.8402 3.556425 32.367949 0.218274
2010-05-05 12:03:37 51°33.434 2°55.922 9.8192 3.555687 32.374328 0.287922
2010-05-05 12:04:36 51°33.438 2°55.88 9.825 3.554949 32.385091 0.427218
2010-05-05 12:05:37 51°33.429 2°55.837 9.8498 3.554949 32.370505 0.35757
2010-05-05 12:06:37 51°33.413 2°55.799 9.8575 3.556847 32.372214 0.287922
2010-05-05 12:07:37 51°33.393 2°55.764 9.8612 3.556003 32.35713 0.322746
2010-05-05 12:08:37 51°33.37 2°55.733 9.8606 3.55653 32.358092 0.392394
2010-05-05 12:09:37 51°33.344 2°55.703 9.8539 3.556214 32.358534 0.462042
2010-05-05 12:11:54 51°33.282 2°55.641 9.8366 3.55516 32.366079 0.949579
2010-05-05 12:16:04 51°33.342 2°55.542 9.8366 3.55632 32.365426 0.148626
2010-05-05 12:17:03 51°33.474 2°55.596 9.8515 3.557058 32.374346 0.148626
2010-05-05 12:18:04 51°33.571 2°55.757 9.88 3.561802 32.387353 0.148626
2010-05-05 12:19:04 51°33.539 2°55.911 9.8786 3.56855 32.464305 0.148626
2010-05-05 12:20:04 51°33.477 2°55.968 9.89 3.567707 32.458697 0.18345
2010-05-05 12:21:04 51°33.422 2°55.996 9.9005 3.566968 32.441021 0.113802
2010-05-05 12:22:04 51°33.38 2°56.014 9.8888 3.566652 32.425433 0.078977
2010-05-05 12:23:04 51°33.343 2°56.022 9.8574 3.564016 32.417743 0.18345
2010-05-05 12:24:03 51°33.313 2°56.025 9.831 3.56117 32.418856 0.287922
2010-05-05 12:25:03 51°33.285 2°56.022 9.8262 3.559378 32.416776 0.287922
2010-05-05 12:26:04 51°33.258 2°56.015 9.8205 3.558323 32.411944 0.322746
2010-05-05 12:27:04 51°33.23 2°56.003 9.8238 3.558956 32.419808 0.287922
2010-05-05 12:28:04 51°33.202 2°55.988 9.8363 3.558323 32.411944 0.35757
2010-05-05 12:29:04 51°33.174 2°55.971 9.8512 3.559483 32.411274 0.322746
2010-05-05 12:30:04 51°33.144 2°55.952 9.86 3.561064 32.4156 0.322746
2010-05-05 12:31:04 51°33.118 2°55.961 9.8607 3.561064 32.406119 0.287922
2010-05-05 12:32:03 51°33.12 2°55.994 9.8322 3.559588 32.401398 0.287922
2010-05-05 12:33:04 51°33.181 2°56.005 9.8181 3.558112 32.41054 0.287922
2010-05-05 12:34:04 51°33.286 2°55.937 9.8388 3.558113 32.419303 0.287922
2010-05-05 12:35:04 51°33.417 2°55.897 9.8382 3.56001 32.402747 0.253098
2010-05-05 12:36:04 51°33.524 2°55.954 9.7972 3.566758 32.481974 0.35757
2010-05-05 12:37:04 51°33.53 2°56.037 9.7275 3.568551 32.547749 0.392394
2010-05-05 12:38:04 51°33.507 2°56.083 9.7103 3.565705 32.578407 0.670986
2010-05-05 12:39:03 51°33.48 2°56.106 9.7238 3.564651 32.572854 0.70581
2010-05-05 12:40:03 51°33.454 2°56.114 9.7179 3.564545 32.568103 0.845107
2010-05-05 12:41:04 51°33.427 2°56.119 9.7168 3.563702 32.563953 0.879931
2010-05-05 12:42:04 51°33.411 2°56.143 9.7418 3.563807 32.557665 0.914755
2010-05-05 12:43:03 51°33.409 2°56.165 9.7573 3.564756 32.546709 0.879931
2010-05-05 12:44:03 51°33.416 2°56.151 9.7762 3.565072 32.53743 0.810283
2010-05-05 12:45:04 51°33.412 2°56.095 9.7741 3.566021 32.535306 0.845107
2010-05-05 12:46:03 51°33.396 2°56.031 9.7595 3.56581 32.534636 1.123699
2010-05-05 12:47:04 51°33.374 2°55.965 9.76 3.565177 32.535562 1.088875
2010-05-05 12:48:03 51°33.353 2°55.901 9.7364 3.565599 32.544981 1.088875
2010-05-05 12:49:04 51°33.334 2°55.836 9.7271 3.564334 32.546839 1.019227
2010-05-05 12:50:03 51°33.316 2°55.772 9.7172 3.564018 32.553922 1.019227
2010-05-05 12:51:04 51°33.297 2°55.706 9.7331 3.564123 32.554992 0.984403
2010-05-05 12:52:04 51°33.28 2°55.641 9.7155 3.565283 32.562352 0.984403
2010-05-05 12:53:04 51°33.271 2°55.554 9.699 3.564651 32.569173 1.088875
2010-05-05 12:54:03 51°33.265 2°55.367 9.6799 3.564124 32.577071 0.984403
2010-05-05 12:55:04 51°33.225 2°55.089 9.6662 3.56444 32.595023 1.019227
2010-05-05 12:56:04 51°33.108 2°54.81 9.7484 3.565916 32.614452 0.670986
2010-05-05 12:57:04 51°32.919 2°54.604 9.8191 3.571609 32.59786 0.18345
2010-05-05 12:58:03 51°32.694 2°54.45 9.8134 3.576353 32.587173 0.218274
2010-05-05 12:59:04 51°32.454 2°54.297 9.8735 3.570765 32.533515 0.322746
2010-05-05 13:00:03 51°32.222 2°54.15 9.8065 3.563911 32.440748 0.35757
2010-05-05 13:01:04 51°31.983 2°53.99 9.7931 3.55864 32.421719 0.462042
2010-05-05 13:02:03 51°31.783 2°53.757 9.7231 3.558851 32.44359 1.193347
2010-05-05 13:03:04 51°31.589 2°53.481 9.6892 3.557797 32.508408 2.029124
2010-05-05 13:04:03 51°31.404 2°53.215 9.6493 3.553897 32.501862 2.516661
2010-05-05 13:05:03 51°31.21 2°52.953 9.6669 3.550207 32.469505 2.621133
2010-05-05 13:06:03 51°31.016 2°52.689 9.6945 3.54873 32.443491 2.412189
2010-05-05 13:07:03 51°30.819 2°52.43 9.7022 3.549257 32.437104 2.795254
2010-05-05 13:08:04 51°30.62 2°52.169 9.7354 3.548835 32.418159 3.143494
2010-05-05 13:09:03 51°30.428 2°51.918 9.7732 3.54757 32.38409 3.178318
2010-05-05 13:10:03 51°30.235 2°51.659 9.7881 3.548202 32.351052 2.76043
2010-05-05 13:11:03 51°30.043 2°51.398 9.8147 3.550627 32.350082 2.307717
2010-05-05 13:12:03 51°29.854 2°51.137 9.9355 3.551575 32.323269 1.750532
2010-05-05 13:13:03 51°29.666 2°50.873 10.0208 3.552417 32.23749 1.088875
2010-05-05 13:14:03 51°29.48 2°50.61 10.1738 3.549359 32.105849 0.392394
2010-05-05 13:15:03 51°29.291 2°50.346 10.1677 3.54883 32.008268 0.218274
2010-05-05 13:20:31 51°28.253 2°48.911 10.1349 3.551045 32.094824 0.253098
2010-05-05 13:21:31 51°28.064 2°48.645 10.0855 3.553048 32.116375 0.18345
2010-05-05 13:22:32 51°27.872 2°48.373 10.0822 3.552943 32.126796 0.287922
2010-05-05 13:23:32 51°27.68 2°48.103 10.152 3.555157 32.115319 0.218274
2010-05-05 13:24:31 51°27.493 2°47.839 10.146 3.555473 32.084844 0.148626
2010-05-05 13:25:31 51°27.305 2°47.571 10.1072 3.554313 32.087521 0.601338
2010-05-05 13:26:31 51°27.118 2°47.308 10.0583 3.553259 32.107737 1.054051
2010-05-05 13:27:31 51°26.93 2°47.045 10.0487 3.551678 32.127725 1.506764
2010-05-05 13:28:31 51°26.742 2°46.775 10.0485 3.548726 32.114568 1.506764
2010-05-05 13:29:32 51°26.549 2°46.505 10.1569 3.547566 32.08712 1.193347
2010-05-05 13:30:31 51°26.365 2°46.238 10.1474 3.550095 32.025227 0.914755
2010-05-05 13:31:31 51°26.177 2°45.968 10.2056 3.545246 31.991598 1.088875
2010-05-05 13:32:31 51°25.986 2°45.699 10.2633 3.544823 31.928292 0.879931
2010-05-05 13:33:31 51°25.798 2°45.426 10.2547 3.547564 31.920214 1.123699
2010-05-05 13:34:31 51°25.61 2°45.158 10.3027 3.545455 31.893467 1.262995
2010-05-05 13:35:31 51°25.423 2°44.892 10.3768 3.546193 31.854139 0.984403
2010-05-05 13:36:32 51°25.236 2°44.616 10.4502 3.546508 31.800873 0.53169
2010-05-05 13:37:31 51°25.101 2°44.413 10.4939 3.547351 31.742533 0.53169
2010-05-05 13:38:32 51°25.005 2°44.255 10.4831 3.545558 31.694623 0.427218
2010-05-05 13:39:31 51°24.92 2°44.126 10.4799 3.539443 31.645081 1.123699
2010-05-05 13:40:31 51°24.834 2°44 10.4893 3.531008 31.5502 0.670986
2010-05-05 13:41:31 51°24.766 2°43.878 10.5078 3.53259 31.56102 0.914755
2010-05-05 13:42:31 51°24.728 2°43.783 10.5074 3.533749 31.559999 0.670986
2010-05-05 13:43:31 51°24.706 2°43.749 10.5082 3.535331 31.568031 0.949579
2010-05-05 13:44:31 51°24.685 2°43.727 10.5046 3.536069 31.574655 1.506764
2010-05-05 13:45:32 51°24.662 2°43.697 10.4913 3.537123 31.587199 1.715708
2010-05-05 13:46:31 51°24.639 2°43.662 10.4722 3.537756 31.606709 2.238069
2010-05-05 13:47:31 51°24.617 2°43.621 10.5125 3.537229 31.607751 1.82018
2010-05-05 13:48:31 51°24.611 2°43.537 10.5241 3.539337 31.603588 0.914755
2010-05-05 13:49:31 51°24.646 2°43.485 10.5055 3.540497 31.601859 0.70581
2010-05-05 13:50:31 51°24.658 2°43.528 10.4793 3.540708 31.621362 0.740634
2010-05-05 13:51:31 51°24.679 2°43.599 10.4993 3.538916 31.625888 0.70581
2010-05-05 13:52:32 51°24.699 2°43.669 10.5052 3.539443 31.618568 0.636162
2010-05-05 13:53:31 51°24.702 2°43.704 10.4916 3.539126 31.611249 0.566514
2010-05-05 13:54:31 51°24.693 2°43.711 10.4944 3.539337 31.627284 0.845107
2010-05-05 13:55:31 51°24.678 2°43.709 10.4864 3.539759 31.621707 0.70581
2010-05-05 13:56:31 51°24.66 2°43.702 10.4972 3.538705 31.617519 0.775459
2010-05-05 13:57:31 51°24.652 2°43.707 10.5033 3.538388 31.607411 0.70581
2010-05-05 13:58:31 51°24.674 2°43.704 10.51 3.537545 31.601133 0.601338
2010-05-05 13:59:31 51°24.681 2°43.719 10.5086 3.538388 31.604624 0.740634
2010-05-05 14:00:31 51°24.664 2°43.718 10.5177 3.539548 31.617523 1.054051
2010-05-05 14:01:32 51°24.643 2°43.71 10.513 3.540181 31.61892 1.019227
2010-05-05 14:02:31 51°24.645 2°43.728 10.5208 3.539653 31.617872 0.949579
2010-05-05 14:03:31 51°24.677 2°43.696 10.5095 3.53997 31.615435 0.775459
2010-05-05 14:04:31 51°24.705 2°43.672 10.5221 3.540181 31.61892 0.70581
2010-05-05 14:05:31 51°24.706 2°43.667 10.5433 3.541024 31.616835 0.566514
2010-05-05 14:06:31 51°24.696 2°43.67 10.5537 3.5425 31.618237 0.636162
2010-05-05 14:07:31 51°24.683 2°43.691 10.5658 3.54503 31.63566 0.810283
2010-05-05 14:08:31 51°24.667 2°43.705 10.5695 3.547033 31.64437 0.775459
2010-05-05 14:09:31 51°24.649 2°43.704 10.5839 3.548404 31.650987 0.740634
2010-05-05 14:10:31 51°24.629 2°43.691 10.5642 3.548825 31.645418 0.775459
2010-05-05 14:11:31 51°24.625 2°43.702 10.5762 3.548825 31.657255 0.740634
2010-05-05 14:12:31 51°24.675 2°43.704 10.5586 3.549142 31.659693 0.70581
2010-05-05 14:13:31 51°24.705 2°43.709 10.5487 3.549669 31.671886 0.740634
2010-05-05 14:14:32 51°24.699 2°43.708 10.5463 3.550091 31.692807 0.810283
2010-05-05 14:15:31 51°24.679 2°43.701 10.5255 3.551145 31.706754 0.949579
2010-05-05 14:16:31 51°24.658 2°43.7 10.5009 3.551356 31.724918 1.193347
2010-05-05 14:17:31 51°24.637 2°43.687 10.4995 3.551989 31.750789 1.193347
2010-05-05 14:18:32 51°24.628 2°43.698 10.4802 3.551357 31.756413 1.123699
2010-05-05 14:19:31 51°24.671 2°43.707 10.4439 3.551252 31.767983 1.158523
2010-05-05 14:21:21 51°24.618 2°43.85 10.4488 3.552939 31.794572 1.228171
2010-05-05 14:25:24 51°23.888 2°44.618 10.4182 3.538707 31.774522 2.307717
2010-05-05 14:26:24 51°23.685 2°44.787 10.2564 3.535334 31.795172 3.039022
2010-05-05 14:27:24 51°23.483 2°44.949 10.2202 3.53196 31.813784 3.28279
2010-05-05 14:28:24 51°23.28 2°45.113 10.232 3.52458 31.71737 3.213142
2010-05-05 14:29:24 51°23.078 2°45.28 10.3228 3.520679 31.652343 3.456911
2010-05-05 14:30:24 51°22.879 2°45.452 10.3074 3.519096 31.585327 3.874799
2010-05-05 14:31:24 51°22.679 2°45.625 10.2886 3.517304 31.575168 4.675753
2010-05-05 14:32:24 51°22.479 2°45.799 10.2869 3.513404 31.553085 5.163289
2010-05-05 14:33:25 51°22.279 2°45.986 10.3045 3.511295 31.530659 5.720474
2010-05-05 14:34:24 51°22.083 2°46.165 10.2838 3.509186 31.497751 6.033891
2010-05-05 14:35:24 51°21.883 2°46.352 10.3271 3.503599 31.452537 6.834844
2010-05-05 14:36:24 51°21.686 2°46.539 10.3563 3.502438 31.399865 5.198113
2010-05-05 14:37:24 51°21.504 2°46.759 10.373 3.49917 31.352747 4.780225
2010-05-05 14:38:24 51°21.326 2°46.982 10.4079 3.498853 31.326704 4.675753
2010-05-05 14:39:24 51°21.148 2°47.205 10.4698 3.498326 31.286155 4.501632
2010-05-05 14:40:24 51°20.973 2°47.435 10.5085 2.440877 19.292325 4.501632
2010-05-05 14:41:24 51°20.791 2°47.657 10.4895 0.271995 1.550806 4.675753
2010-05-05 14:42:24 51°20.607 2°47.881 10.4871 0.089198 0.4866 4.745401
2010-05-05 14:43:24 51°20.426 2°48.099 10.4659 0.072758 0.403645 3.213142
2010-05-05 14:44:24 51°20.243 2°48.315 10.4623 0.070989 0.399616 2.063949
2010-05-05 14:45:24 51°20.058 2°48.533 10.4275 0.071405 0.402465 1.785356
2010-05-05 14:46:24 51°19.873 2°48.754 10.4129 0.072029 0.40616 1.47194
2010-05-05 14:47:24 51°19.687 2°48.974 10.3956 0.073174 0.413292 1.541588
2010-05-05 14:48:24 51°19.504 2°49.197 10.3809 0.074214 0.419674 1.437116
2010-05-05 14:49:24 51°19.321 2°49.419 10.3246 0.0764 0.433222 1.715708
2010-05-05 14:50:24 51°19.142 2°49.642 10.3204 0.079209 0.449979 2.133597
2010-05-05 14:51:24 51°18.961 2°49.866 10.3138 0.079833 0.453803 1.611236
2010-05-05 14:52:24 51°18.777 2°50.088 10.3203 0.078897 0.44862 1.297819
2010-05-05 14:53:24 51°18.599 2°50.316 10.3119 0.07796 0.443499 1.228171
2010-05-05 14:54:24 51°18.416 2°50.536 10.3144 0.07744 0.440694 1.158523
2010-05-05 14:55:24 51°18.229 2°50.747 10.3638 0.07692 0.437879 1.123699
2010-05-05 14:56:24 51°18.051 2°50.979 10.3794 0.0764 0.435032 1.193347
2010-05-05 14:57:24 51°17.887 2°51.223 10.3125 0.075983 0.432871 1.088875
2010-05-05 14:58:24 51°17.715 2°51.469 10.2984 0.075567 0.430619 1.297819
2010-05-05 14:59:24 51°17.548 2°51.719 10.2962 0.075151 0.428294 1.680884
2010-05-05 15:00:24 51°17.392 2°51.987 10.3281 0.074735 0.426113 2.272893
2010-05-05 15:01:24 51°17.211 2°52.207 10.3806 0.074423 0.424501 2.377365
2010-05-05 15:02:24 51°17.011 2°52.388 10.3814 0.07411 0.422851 2.029124
2010-05-05 15:03:24 51°16.802 2°52.561 10.3705 0.073694 0.420579 1.715708
2010-05-05 15:04:24 51°16.601 2°52.745 10.3938 0.073486 0.419542 1.228171
2010-05-05 15:05:24 51°16.395 2°52.912 10.4078 0.073174 0.417875 1.158523
2010-05-05 15:06:24 51°16.196 2°53.089 10.4429 0.072966 0.416787 1.297819
2010-05-05 15:07:24 51°15.997 2°53.27 10.4996 0.072758 0.415784 1.64606
2010-05-05 15:08:24 51°15.799 2°53.453 10.5319 0.07255 0.414702 2.272893
2010-05-05 15:09:24 51°15.602 2°53.639 10.5803 0.072446 0.414206 2.447013
2010-05-05 15:10:24 51°15.421 2°53.854 10.6002 0.072238 0.41313 2.447013
2010-05-05 15:11:24 51°15.249 2°54.089 10.7383 0.07203 0.412046 1.332643
2010-05-05 15:12:24 51°15.067 2°54.301 10.7283 0.071925 0.411528 1.123699
2010-05-05 15:13:25 51°14.878 2°54.513 10.7466 0.071821 0.411074 0.949579
2010-05-05 15:14:24 51°14.705 2°54.734 10.7789 0.071613 0.409982 1.123699
2010-05-05 15:15:24 51°14.534 2°54.966 10.8278 0.071509 0.409505 1.054051
2010-05-05 15:16:24 51°14.355 2°55.175 10.9948 0.071405 0.409036 1.054051
2010-05-05 15:17:24 51°14.214 2°55.334 11.2553 0.071301 0.408517 1.680884
2010-05-05 15:18:24 51°14.115 2°55.427 11.6219 0.071093 0.40743 -0.965744
2010-05-05 15:19:24 51°14.01 2°55.495 11.7263 0.070989 0.406945 -0.965744
2010-05-05 15:20:24 51°13.901 2°55.568 11.8216 0.070989 0.407029 -0.965744
2010-05-05 15:21:24 51°13.811 2°55.637 11.8959 0.070989 0.407155 -0.965744
2010-05-05 15:22:24 51°13.742 2°55.735 11.9349 0.070885 0.40674 -0.965744
2010-05-05 15:23:24 51°13.689 2°55.848 12.0281 0.070885 0.406831 -0.93092
2010-05-05 15:24:24 51°13.663 2°55.944 12.0983 0.070781 0.406394 -0.965744